National Weather Service United States Department of Commerce
Click Here for Latest Airport Weather Warnings
 
Latest Huntsville TAF


000
FTUS44 KHUN 261135
TAFHSV
TAF
KHSV 261135Z 2612/2712 18008KT P6SM OVC015
FM261700 20010G15KT P6SM SCT025 BKN040
FM270000 VRB04KT P6SM SCT040 BKN250=

Latest Muscle Shoals TAF


000
FTUS44 KHUN 261135
TAFMSL
TAF
KMSL 261135Z 2612/2712 19007KT P6SM OVC015
TEMPO 2612/2614 OVC009
FM261700 21012G17KT P6SM SCT030 BKN050
FM270000 VRB03KT P6SM SCT050 BKN250=

 

Back to Main Huntsville Weather Forecast Office Page